sensor_id;sensor_type;location;lat;lon;timestamp;pressure;altitude;pressure_sealevel;temperature;humidity
83733;BME280;73710;49.968;8.338;2024-02-23T05:04:25;51606.06;;;-141.83;81.49
83733;BME280;73710;49.968;8.338;2024-02-23T05:06:52;51646.13;;;-141.83;80.21
83733;BME280;73710;49.968;8.338;2024-02-23T05:09:17;51662.16;;;-141.83;78.93
83733;BME280;73710;49.968;8.338;2024-02-23T05:11:43;51614.06;;;-141.83;79.08
83733;BME280;73710;49.968;8.338;2024-02-23T05:14:08;51664.19;;;-141.83;77.93
83733;BME280;73710;49.968;8.338;2024-02-23T05:16:33;51682.22;;;-141.83;77.36
83733;BME280;73710;49.968;8.338;2024-02-23T05:18:59;51622.09;;;-141.83;78.57
83733;BME280;73710;49.968;8.338;2024-02-23T05:21:24;51638.13;;;-141.83;78.38
83733;BME280;73710;49.968;8.338;2024-02-23T05:23:51;51632.09;;;-141.83;78.42
83733;BME280;73710;49.968;8.338;2024-02-23T05:26:16;51652.16;;;-141.83;77.44
83733;BME280;73710;49.968;8.338;2024-02-23T05:28:42;51662.16;;;-141.83;76.66
83733;BME280;73710;49.968;8.338;2024-02-23T05:31:09;51654.16;;;-141.83;77.09
83733;BME280;73710;49.968;8.338;2024-02-23T05:33:34;51600.03;;;-141.83;76.77
83733;BME280;73710;49.968;8.338;2024-02-23T05:36:00;51610.06;;;-141.83;77.57
83733;BME280;73710;49.968;8.338;2024-02-23T05:38:25;51670.19;;;-141.83;77.05
83733;BME280;73710;49.968;8.338;2024-02-23T05:40:51;51644.13;;;-141.83;75.19
83733;BME280;73710;49.968;8.338;2024-02-23T05:43:16;51678.19;;;-141.83;74.69
83733;BME280;73710;49.968;8.338;2024-02-23T05:45:42;51654.16;;;-141.83;74.75
83733;BME280;73710;49.968;8.338;2024-02-23T05:48:09;51638.13;;;-141.83;75.00
83733;BME280;73710;49.968;8.338;2024-02-23T05:50:34;51644.13;;;-141.83;75.65
83733;BME280;73710;49.968;8.338;2024-02-23T05:52:59;51656.16;;;-141.83;76.93
83733;BME280;73710;49.968;8.338;2024-02-23T05:55:25;51666.19;;;-141.83;75.62
83733;BME280;73710;49.968;8.338;2024-02-23T05:57:50;51678.19;;;-141.83;75.37
83733;BME280;73710;49.968;8.338;2024-02-23T06:00:18;51668.19;;;-141.83;74.77
83733;BME280;73710;49.968;8.338;2024-02-23T06:02:45;51658.16;;;-141.83;74.32
83733;BME280;73710;49.968;8.338;2024-02-23T06:05:11;51640.13;;;-141.83;74.02
83733;BME280;73710;49.968;8.338;2024-02-23T06:07:37;51644.13;;;-141.83;73.73
83733;BME280;73710;49.968;8.338;2024-02-23T06:10:02;51664.19;;;-141.83;73.96
83733;BME280;73710;49.968;8.338;2024-02-23T06:12:28;51638.13;;;-141.83;75.61
83733;BME280;73710;49.968;8.338;2024-02-23T06:14:53;51658.16;;;-141.83;74.39
83733;BME280;73710;49.968;8.338;2024-02-23T06:17:20;51648.13;;;-141.83;75.73
83733;BME280;73710;49.968;8.338;2024-02-23T06:19:45;51606.06;;;-141.83;76.16
83733;BME280;73710;49.968;8.338;2024-02-23T06:22:11;51662.16;;;-141.83;76.70
83733;BME280;73710;49.968;8.338;2024-02-23T06:24:37;51666.19;;;-141.83;77.28
83733;BME280;73710;49.968;8.338;2024-02-23T06:27:03;51600.03;;;-141.83;78.35
83733;BME280;73710;49.968;8.338;2024-02-23T06:29:29;51638.13;;;-141.83;78.50
83733;BME280;73710;49.968;8.338;2024-02-23T06:31:55;51638.13;;;-141.83;79.15
83733;BME280;73710;49.968;8.338;2024-02-23T06:34:20;51658.16;;;-141.83;78.30
83733;BME280;73710;49.968;8.338;2024-02-23T06:36:46;51654.16;;;-141.83;77.84
83733;BME280;73710;49.968;8.338;2024-02-23T06:39:11;51658.16;;;-141.83;76.78
83733;BME280;73710;49.968;8.338;2024-02-23T06:41:38;51654.16;;;-141.83;76.78
83733;BME280;73710;49.968;8.338;2024-02-23T06:44:06;51648.13;;;-141.83;75.98
83733;BME280;73710;49.968;8.338;2024-02-23T06:46:31;51618.06;;;-141.83;76.18
83733;BME280;73710;49.968;8.338;2024-02-23T06:48:56;51682.22;;;-141.83;76.49
83733;BME280;73710;49.968;8.338;2024-02-23T06:51:22;51638.13;;;-141.83;76.21
83733;BME280;73710;49.968;8.338;2024-02-23T06:53:47;51668.19;;;-141.83;76.42
83733;BME280;73710;49.968;8.338;2024-02-23T06:56:13;51626.09;;;-141.83;75.96
83733;BME280;73710;49.968;8.338;2024-02-23T06:58:38;51660.16;;;-141.83;75.62
83733;BME280;73710;49.968;8.338;2024-02-23T07:01:04;51626.09;;;-141.83;75.32
83733;BME280;73710;49.968;8.338;2024-02-23T07:03:32;51662.16;;;-141.83;75.57
83733;BME280;73710;49.968;8.338;2024-02-23T07:05:57;51690.22;;;-141.83;75.37
83733;BME280;73710;49.968;8.338;2024-02-23T07:08:22;51654.16;;;-141.83;75.93
83733;BME280;73710;49.968;8.338;2024-02-23T07:10:48;51662.16;;;-141.83;76.13
83733;BME280;73710;49.968;8.338;2024-02-23T07:13:13;51662.16;;;-141.83;76.26
83733;BME280;73710;49.968;8.338;2024-02-23T07:15:39;51662.16;;;-141.83;75.26
83733;BME280;73710;49.968;8.338;2024-02-23T07:18:04;51658.16;;;-141.83;74.67
83733;BME280;73710;49.968;8.338;2024-02-23T07:20:30;51674.19;;;-141.83;74.53
83733;BME280;73710;49.968;8.338;2024-02-23T07:22:55;51622.09;;;-141.83;73.24
83733;BME280;73710;49.968;8.338;2024-02-23T07:25:21;51690.22;;;-141.83;72.29
83733;BME280;73710;49.968;8.338;2024-02-23T07:27:46;51694.25;;;-141.83;70.62
83733;BME280;73710;49.968;8.338;2024-02-23T07:30:14;51676.19;;;-141.83;70.42
83733;BME280;73710;49.968;8.338;2024-02-23T07:32:40;51654.16;;;-141.83;69.95
83733;BME280;73710;49.968;8.338;2024-02-23T07:35:05;51698.25;;;-141.83;68.86
83733;BME280;73710;49.968;8.338;2024-02-23T07:37:31;51684.22;;;-141.83;68.57
83733;BME280;73710;49.968;8.338;2024-02-23T07:39:56;51708.28;;;-141.83;67.99
83733;BME280;73710;49.968;8.338;2024-02-23T07:42:22;51682.22;;;-141.83;68.18
83733;BME280;73710;49.968;8.338;2024-02-23T07:44:47;51706.25;;;-141.83;67.89
83733;BME280;73710;49.968;8.338;2024-02-23T07:47:13;51690.22;;;-141.83;68.01
83733;BME280;73710;49.968;8.338;2024-02-23T07:49:38;51708.28;;;-141.83;67.86
83733;BME280;73710;49.968;8.338;2024-02-23T07:52:06;51670.19;;;-141.83;66.80
83733;BME280;73710;49.968;8.338;2024-02-23T07:54:32;51686.22;;;-141.83;66.94
83733;BME280;73710;49.968;8.338;2024-02-23T07:56:57;51668.19;;;-141.83;66.59
83733;BME280;73710;49.968;8.338;2024-02-23T07:59:23;51684.22;;;-141.83;65.86
83733;BME280;73710;49.968;8.338;2024-02-23T08:01:48;51702.25;;;-141.83;66.09
83733;BME280;73710;49.968;8.338;2024-02-23T08:04:14;51688.22;;;-141.83;66.58
83733;BME280;73710;49.968;8.338;2024-02-23T08:06:39;51694.25;;;-141.83;65.70
83733;BME280;73710;49.968;8.338;2024-02-23T08:09:05;51686.22;;;-141.83;65.21
83733;BME280;73710;49.968;8.338;2024-02-23T08:11:30;51660.16;;;-141.83;64.64
83733;BME280;73710;49.968;8.338;2024-02-23T08:13:55;51702.25;;;-141.83;65.97
83733;BME280;73710;49.968;8.338;2024-02-23T08:16:21;51702.25;;;-141.83;65.37
83733;BME280;73710;49.968;8.338;2024-02-23T08:18:46;51710.28;;;-141.83;65.07
83733;BME280;73710;49.968;8.338;2024-02-23T08:21:12;51724.31;;;-141.83;65.29
83733;BME280;73710;49.968;8.338;2024-02-23T08:23:37;51690.22;;;-141.83;64.60
83733;BME280;73710;49.968;8.338;2024-02-23T08:26:03;51662.16;;;-141.83;64.18
83733;BME280;73710;49.968;8.338;2024-02-23T08:28:28;51702.25;;;-141.83;64.69
83733;BME280;73710;49.968;8.338;2024-02-23T08:30:54;51702.25;;;-141.83;63.65
83733;BME280;73710;49.968;8.338;2024-02-23T08:33:19;51754.38;;;-141.83;62.47
83733;BME280;73710;49.968;8.338;2024-02-23T08:35:45;51702.25;;;-141.83;61.86
83733;BME280;73710;49.968;8.338;2024-02-23T08:38:10;51700.25;;;-141.83;62.40
83733;BME280;73710;49.968;8.338;2024-02-23T08:40:36;51686.22;;;-141.83;61.15
83733;BME280;73710;49.968;8.338;2024-02-23T08:43:01;51710.28;;;-141.83;62.20
83733;BME280;73710;49.968;8.338;2024-02-23T08:45:27;51714.28;;;-141.83;61.92
83733;BME280;73710;49.968;8.338;2024-02-23T08:47:52;51710.28;;;-141.83;62.77
83733;BME280;73710;49.968;8.338;2024-02-23T08:50:18;51714.28;;;-141.83;61.54
83733;BME280;73710;49.968;8.338;2024-02-23T08:52:43;51674.19;;;-141.83;62.18
83733;BME280;73710;49.968;8.338;2024-02-23T08:55:08;51694.25;;;-141.83;62.35
83733;BME280;73710;49.968;8.338;2024-02-23T08:57:34;51706.25;;;-141.83;62.85
83733;BME280;73710;49.968;8.338;2024-02-23T08:59:59;51686.22;;;-141.83;61.97
83733;BME280;73710;49.968;8.338;2024-02-23T09:02:25;51680.22;;;-141.83;62.39
83733;BME280;73710;49.968;8.338;2024-02-23T09:04:50;51730.31;;;-141.83;62.49
83733;BME280;73710;49.968;8.338;2024-02-23T09:07:16;51698.25;;;-141.83;61.54
83733;BME280;73710;49.968;8.338;2024-02-23T09:09:45;51682.22;;;-141.83;62.20
83733;BME280;73710;49.968;8.338;2024-02-23T09:12:10;51692.22;;;-141.83;61.87
83733;BME280;73710;49.968;8.338;2024-02-23T09:14:36;51678.19;;;-141.83;61.33
83733;BME280;73710;49.968;8.338;2024-02-23T09:17:04;51678.19;;;-141.83;61.40
83733;BME280;73710;49.968;8.338;2024-02-23T09:19:29;51708.28;;;-141.83;61.82
83733;BME280;73710;49.968;8.338;2024-02-23T09:21:55;51698.25;;;-141.83;61.08
83733;BME280;73710;49.968;8.338;2024-02-23T09:24:20;51726.31;;;-141.83;61.50
83733;BME280;73710;49.968;8.338;2024-02-23T09:26:46;51726.31;;;-141.83;58.89
83733;BME280;73710;49.968;8.338;2024-02-23T09:29:12;51734.31;;;-141.83;59.01
83733;BME280;73710;49.968;8.338;2024-02-23T09:31:38;51706.25;;;-141.83;59.54
83733;BME280;73710;49.968;8.338;2024-02-23T09:34:03;51706.25;;;-141.83;59.62
83733;BME280;73710;49.968;8.338;2024-02-23T09:36:28;51758.38;;;-141.83;59.50
83733;BME280;73710;49.968;8.338;2024-02-23T09:38:55;51708.28;;;-141.83;58.71
83733;BME280;73710;49.968;8.338;2024-02-23T09:41:22;51718.28;;;-141.83;57.94
83733;BME280;73710;49.968;8.338;2024-02-23T09:43:48;51734.31;;;-141.83;57.92
83733;BME280;73710;49.968;8.338;2024-02-23T09:46:18;51722.31;;;-141.83;57.31
83733;BME280;73710;49.968;8.338;2024-02-23T09:48:44;51740.34;;;-141.83;56.33
83733;BME280;73710;49.968;8.338;2024-02-23T09:51:13;51724.31;;;-141.83;57.30
83733;BME280;73710;49.968;8.338;2024-02-23T09:53:41;51700.25;;;-141.83;58.33
83733;BME280;73710;49.968;8.338;2024-02-23T09:56:10;51734.31;;;-141.83;57.76
83733;BME280;73710;49.968;8.338;2024-02-23T09:58:36;51740.34;;;-141.83;55.20
83733;BME280;73710;49.968;8.338;2024-02-23T10:01:03;51696.25;;;-141.83;54.27
83733;BME280;73710;49.968;8.338;2024-02-23T10:03:29;51710.28;;;-141.83;53.87
83733;BME280;73710;49.968;8.338;2024-02-23T10:05:58;51762.38;;;-141.83;53.45
83733;BME280;73710;49.968;8.338;2024-02-23T10:08:23;51722.31;;;-141.83;54.40
83733;BME280;73710;49.968;8.338;2024-02-23T10:10:48;51780.44;;;-141.83;54.54
83733;BME280;73710;49.968;8.338;2024-02-23T10:13:20;51710.28;;;-141.83;54.73
83733;BME280;73710;49.968;8.338;2024-02-23T10:15:52;51698.25;;;-141.83;55.51
83733;BME280;73710;49.968;8.338;2024-02-23T10:18:18;51740.34;;;-141.83;55.36
83733;BME280;73710;49.968;8.338;2024-02-23T10:20:43;51714.28;;;-141.83;56.31
83733;BME280;73710;49.968;8.338;2024-02-23T10:23:09;51730.31;;;-141.83;54.49
83733;BME280;73710;49.968;8.338;2024-02-23T10:25:35;51718.28;;;-141.83;56.26
83733;BME280;73710;49.968;8.338;2024-02-23T10:28:04;51710.28;;;-141.83;55.33
83733;BME280;73710;49.968;8.338;2024-02-23T10:30:30;51704.25;;;-141.83;55.48
83733;BME280;73710;49.968;8.338;2024-02-23T10:32:56;51722.31;;;-141.83;57.42
83733;BME280;73710;49.968;8.338;2024-02-23T10:35:23;51738.34;;;-141.83;54.08
83733;BME280;73710;49.968;8.338;2024-02-23T10:37:49;51732.31;;;-141.83;53.50
83733;BME280;73710;49.968;8.338;2024-02-23T10:40:16;51762.38;;;-141.83;53.04
83733;BME280;73710;49.968;8.338;2024-02-23T10:42:44;51732.31;;;-141.83;53.41
83733;BME280;73710;49.968;8.338;2024-02-23T10:45:19;51742.34;;;-141.83;53.13
83733;BME280;73710;49.968;8.338;2024-02-23T10:47:47;51750.38;;;-141.83;53.64
83733;BME280;73710;49.968;8.338;2024-02-23T10:50:14;51766.41;;;-141.83;53.80
83733;BME280;73710;49.968;8.338;2024-02-23T10:52:43;51710.28;;;-141.83;52.66
83733;BME280;73710;49.968;8.338;2024-02-23T10:55:09;51766.41;;;-141.83;53.39
83733;BME280;73710;49.968;8.338;2024-02-23T10:57:35;51752.38;;;-141.83;53.16
83733;BME280;73710;49.968;8.338;2024-02-23T11:00:02;51718.28;;;-141.83;52.55
83733;BME280;73710;49.968;8.338;2024-02-23T11:02:32;51726.31;;;-141.83;51.50
83733;BME280;73710;49.968;8.338;2024-02-23T11:05:00;51732.31;;;-141.83;51.32
83733;BME280;73710;49.968;8.338;2024-02-23T11:07:25;51742.34;;;-141.83;51.99
83733;BME280;73710;49.968;8.338;2024-02-23T11:09:53;51746.34;;;-141.83;50.16
83733;BME280;73710;49.968;8.338;2024-02-23T11:12:26;51770.41;;;-141.83;50.79
83733;BME280;73710;49.968;8.338;2024-02-23T11:14:57;51710.28;;;-141.83;51.47
83733;BME280;73710;49.968;8.338;2024-02-23T11:17:30;51742.34;;;-141.83;50.06
83733;BME280;73710;49.968;8.338;2024-02-23T11:19:56;51766.41;;;-141.83;49.35
83733;BME280;73710;49.968;8.338;2024-02-23T11:22:26;51808.50;;;-141.83;48.43
83733;BME280;73710;49.968;8.338;2024-02-23T11:24:52;51754.38;;;-141.83;47.93
83733;BME280;73710;49.968;8.338;2024-02-23T11:27:18;51730.31;;;-141.83;47.29
83733;BME280;73710;49.968;8.338;2024-02-23T11:29:47;51694.25;;;-141.83;48.58
83733;BME280;73710;49.968;8.338;2024-02-23T11:32:17;51718.28;;;-141.83;48.25
83733;BME280;73710;49.968;8.338;2024-02-23T11:34:54;51722.31;;;-141.83;49.68
83733;BME280;73710;49.968;8.338;2024-02-23T11:37:20;51722.31;;;-141.83;49.87
83733;BME280;73710;49.968;8.338;2024-02-23T11:39:46;51710.28;;;-141.83;49.86
83733;BME280;73710;49.968;8.338;2024-02-23T11:42:12;51722.31;;;-141.83;49.39
83733;BME280;73710;49.968;8.338;2024-02-23T11:44:37;51728.31;;;-141.83;49.22
83733;BME280;73710;49.968;8.338;2024-02-23T11:47:03;51714.28;;;-141.83;49.12
83733;BME280;73710;49.968;8.338;2024-02-23T11:49:29;51740.34;;;-141.83;49.75
83733;BME280;73710;49.968;8.338;2024-02-23T11:51:55;51742.34;;;-141.83;49.51
83733;BME280;73710;49.968;8.338;2024-02-23T11:54:21;51722.31;;;-141.83;48.45
83733;BME280;73710;49.968;8.338;2024-02-23T11:56:48;51770.41;;;-141.83;47.63
83733;BME280;73710;49.968;8.338;2024-02-23T11:59:15;51742.34;;;-141.83;48.06
83733;BME280;73710;49.968;8.338;2024-02-23T12:01:40;51730.31;;;-141.83;49.57
83733;BME280;73710;49.968;8.338;2024-02-23T12:04:06;51718.28;;;-141.83;49.00
83733;BME280;73710;49.968;8.338;2024-02-23T12:06:33;51734.31;;;-141.83;48.18
83733;BME280;73710;49.968;8.338;2024-02-23T12:09:00;51758.38;;;-141.83;48.33
83733;BME280;73710;49.968;8.338;2024-02-23T12:11:25;51718.28;;;-141.83;49.24
83733;BME280;73710;49.968;8.338;2024-02-23T12:13:51;51718.28;;;-141.83;48.82
83733;BME280;73710;49.968;8.338;2024-02-23T12:16:17;51738.34;;;-141.83;48.68
83733;BME280;73710;49.968;8.338;2024-02-23T12:18:42;51750.38;;;-141.83;48.56
83733;BME280;73710;49.968;8.338;2024-02-23T12:21:08;51710.28;;;-141.83;49.12
83733;BME280;73710;49.968;8.338;2024-02-23T12:23:44;51724.31;;;-141.83;48.84
83733;BME280;73710;49.968;8.338;2024-02-23T12:26:11;51748.34;;;-141.83;48.10
83733;BME280;73710;49.968;8.338;2024-02-23T12:28:38;51738.34;;;-141.83;46.71
83733;BME280;73710;49.968;8.338;2024-02-23T12:31:04;51758.38;;;-141.83;45.47
83733;BME280;73710;49.968;8.338;2024-02-23T12:33:37;51742.34;;;-141.83;46.50
83733;BME280;73710;49.968;8.338;2024-02-23T12:36:08;51752.38;;;-141.83;45.25
83733;BME280;73710;49.968;8.338;2024-02-23T12:38:33;51742.34;;;-141.83;45.26
83733;BME280;73710;49.968;8.338;2024-02-23T12:41:00;51762.38;;;-141.83;44.43
83733;BME280;73710;49.968;8.338;2024-02-23T12:43:25;51760.38;;;-141.83;44.63
83733;BME280;73710;49.968;8.338;2024-02-23T12:45:52;51722.31;;;-141.83;44.50
83733;BME280;73710;49.968;8.338;2024-02-23T12:48:19;51770.41;;;-141.83;44.56
83733;BME280;73710;49.968;8.338;2024-02-23T12:50:45;51754.38;;;-141.83;45.19
83733;BME280;73710;49.968;8.338;2024-02-23T12:53:30;51786.44;;;-141.83;44.61
83733;BME280;73710;49.968;8.338;2024-02-23T12:56:06;51746.34;;;-141.83;44.35
83733;BME280;73710;49.968;8.338;2024-02-23T12:58:33;51726.31;;;-141.83;43.76
83733;BME280;73710;49.968;8.338;2024-02-23T13:00:59;51768.41;;;-141.83;43.40
83733;BME280;73710;49.968;8.338;2024-02-23T13:03:26;51722.31;;;-141.83;43.81
83733;BME280;73710;49.968;8.338;2024-02-23T13:05:55;51774.41;;;-141.83;43.38
83733;BME280;73710;49.968;8.338;2024-02-23T13:08:25;51734.31;;;-141.83;42.76
83733;BME280;73710;49.968;8.338;2024-02-23T13:10:54;51736.34;;;-141.83;42.82
83733;BME280;73710;49.968;8.338;2024-02-23T13:13:20;51718.28;;;-141.83;43.02
83733;BME280;73710;49.968;8.338;2024-02-23T13:15:46;51696.25;;;-141.83;43.29
83733;BME280;73710;49.968;8.338;2024-02-23T13:18:12;51762.38;;;-141.83;43.36
83733;BME280;73710;49.968;8.338;2024-02-23T13:20:38;51724.31;;;-141.83;43.43
83733;BME280;73710;49.968;8.338;2024-02-23T13:23:05;51744.34;;;-141.83;43.55
83733;BME280;73710;49.968;8.338;2024-02-23T13:25:34;51702.25;;;-141.83;43.76
83733;BME280;73710;49.968;8.338;2024-02-23T13:27:59;51722.31;;;-141.83;44.25
83733;BME280;73710;49.968;8.338;2024-02-23T13:30:24;51720.28;;;-141.83;44.35
83733;BME280;73710;49.968;8.338;2024-02-23T13:32:50;51742.34;;;-141.83;42.54
83733;BME280;73710;49.968;8.338;2024-02-23T13:35:16;51774.41;;;-141.83;42.40
83733;BME280;73710;49.968;8.338;2024-02-23T13:37:42;51690.22;;;-141.83;43.34
83733;BME280;73710;49.968;8.338;2024-02-23T13:40:08;51720.28;;;-141.83;42.47
83733;BME280;73710;49.968;8.338;2024-02-23T13:42:34;51756.38;;;-141.83;42.69
83733;BME280;73710;49.968;8.338;2024-02-23T13:45:00;51754.38;;;-141.83;43.15
83733;BME280;73710;49.968;8.338;2024-02-23T13:47:25;51752.38;;;-141.83;43.70
83733;BME280;73710;49.968;8.338;2024-02-23T13:49:51;51710.28;;;-141.83;42.34
83733;BME280;73710;49.968;8.338;2024-02-23T13:52:16;51704.25;;;-141.83;44.05
83733;BME280;73710;49.968;8.338;2024-02-23T13:54:41;51758.38;;;-141.83;42.28
83733;BME280;73710;49.968;8.338;2024-02-23T13:57:10;51738.34;;;-141.83;42.27
83733;BME280;73710;49.968;8.338;2024-02-23T13:59:36;51754.38;;;-141.83;41.07
83733;BME280;73710;49.968;8.338;2024-02-23T14:02:01;51762.38;;;-141.83;41.32
83733;BME280;73710;49.968;8.338;2024-02-23T14:04:26;51722.31;;;-141.83;41.02
83733;BME280;73710;49.968;8.338;2024-02-23T14:06:52;51794.47;;;-141.83;40.58
83733;BME280;73710;49.968;8.338;2024-02-23T14:09:17;51760.38;;;-141.83;40.82
83733;BME280;73710;49.968;8.338;2024-02-23T14:11:43;51754.38;;;-141.83;39.81
83733;BME280;73710;49.968;8.338;2024-02-23T14:14:10;51756.38;;;-141.83;39.93
83733;BME280;73710;49.968;8.338;2024-02-23T14:16:35;51804.47;;;-141.83;40.17
83733;BME280;73710;49.968;8.338;2024-02-23T14:19:01;51780.44;;;-141.83;40.13
83733;BME280;73710;49.968;8.338;2024-02-23T14:21:26;51746.34;;;-141.83;41.34
83733;BME280;73710;49.968;8.338;2024-02-23T14:23:52;51718.28;;;-141.83;39.93
83733;BME280;73710;49.968;8.338;2024-02-23T14:26:17;51744.34;;;-141.83;38.96
83733;BME280;73710;49.968;8.338;2024-02-23T14:28:43;51790.44;;;-141.83;38.61
83733;BME280;73710;49.968;8.338;2024-02-23T14:31:08;51818.50;;;-141.83;38.52
83733;BME280;73710;49.968;8.338;2024-02-23T14:33:34;51822.53;;;-141.83;35.12
83733;BME280;73710;49.968;8.338;2024-02-23T14:35:59;51856.59;;;-141.83;33.53
83733;BME280;73710;49.968;8.338;2024-02-23T14:38:25;51878.66;;;-141.83;33.41
83733;BME280;73710;49.968;8.338;2024-02-23T14:40:50;51820.50;;;-141.83;34.38
83733;BME280;73710;49.968;8.338;2024-02-23T14:43:16;51772.41;;;-141.83;35.99
83733;BME280;73710;49.968;8.338;2024-02-23T14:45:41;51754.38;;;-141.83;37.56
83733;BME280;73710;49.968;8.338;2024-02-23T14:48:07;51756.38;;;-141.83;38.47
83733;BME280;73710;49.968;8.338;2024-02-23T14:50:32;51748.34;;;-141.83;39.50
83733;BME280;73710;49.968;8.338;2024-02-23T14:52:59;51732.31;;;-141.83;41.20
83733;BME280;73710;49.968;8.338;2024-02-23T14:55:24;51738.34;;;-141.83;43.36
83733;BME280;73710;49.968;8.338;2024-02-23T14:57:49;51778.41;;;-141.83;41.60
83733;BME280;73710;49.968;8.338;2024-02-23T15:00:15;51834.53;;;-141.83;39.64
83733;BME280;73710;49.968;8.338;2024-02-23T15:02:40;51860.59;;;-141.83;36.93
83733;BME280;73710;49.968;8.338;2024-02-23T15:05:06;51890.66;;;-141.83;35.92
83733;BME280;73710;49.968;8.338;2024-02-23T15:07:33;51894.69;;;-141.83;34.35
83733;BME280;73710;49.968;8.338;2024-02-23T15:09:58;51884.66;;;-141.83;32.68
83733;BME280;73710;49.968;8.338;2024-02-23T15:12:24;51930.75;;;-141.83;33.46
83733;BME280;73710;49.968;8.338;2024-02-23T15:14:53;51938.78;;;-141.83;32.21
83733;BME280;73710;49.968;8.338;2024-02-23T15:17:18;51932.75;;;-141.83;32.23
83733;BME280;73710;49.968;8.338;2024-02-23T15:19:44;51910.72;;;-141.83;33.36
83733;BME280;73710;49.968;8.338;2024-02-23T15:22:09;51798.47;;;-141.83;35.82
83733;BME280;73710;49.968;8.338;2024-02-23T15:24:39;51878.66;;;-141.83;35.44
83733;BME280;73710;49.968;8.338;2024-02-23T15:27:07;51930.75;;;-141.83;33.62
83733;BME280;73710;49.968;8.338;2024-02-23T15:29:32;51910.72;;;-141.83;31.77
83733;BME280;73710;49.968;8.338;2024-02-23T15:31:57;51918.72;;;-141.83;33.27
83733;BME280;73710;49.968;8.338;2024-02-23T15:34:23;51832.53;;;-141.83;37.34
83733;BME280;73710;49.968;8.338;2024-02-23T15:36:48;51752.38;;;-141.83;41.96
83733;BME280;73710;49.968;8.338;2024-02-23T15:39:14;51726.31;;;-141.83;44.58
83733;BME280;73710;49.968;8.338;2024-02-23T15:41:39;51702.25;;;-141.83;46.53
83733;BME280;73710;49.968;8.338;2024-02-23T15:44:05;51734.31;;;-141.83;47.88
83733;BME280;73710;49.968;8.338;2024-02-23T15:46:30;51706.25;;;-141.83;48.89
83733;BME280;73710;49.968;8.338;2024-02-23T15:48:56;51680.22;;;-141.83;49.31
83733;BME280;73710;49.968;8.338;2024-02-23T15:51:21;51674.19;;;-141.83;49.59
83733;BME280;73710;49.968;8.338;2024-02-23T15:53:47;51684.22;;;-141.83;50.35
83733;BME280;73710;49.968;8.338;2024-02-23T15:56:12;51678.19;;;-141.83;50.64
83733;BME280;73710;49.968;8.338;2024-02-23T15:58:38;51670.19;;;-141.83;51.03
83733;BME280;73710;49.968;8.338;2024-02-23T16:01:04;51704.25;;;-141.83;52.06
83733;BME280;73710;49.968;8.338;2024-02-23T16:03:30;51650.16;;;-141.83;52.39
83733;BME280;73710;49.968;8.338;2024-02-23T16:05:55;51656.16;;;-141.83;52.46
83733;BME280;73710;49.968;8.338;2024-02-23T16:08:39;51678.19;;;-141.83;53.63
83733;BME280;73710;49.968;8.338;2024-02-23T16:11:05;51650.16;;;-141.83;54.08
83733;BME280;73710;49.968;8.338;2024-02-23T16:13:32;51648.13;;;-141.83;54.97
83733;BME280;73710;49.968;8.338;2024-02-23T16:15:57;51666.19;;;-141.83;55.67
83733;BME280;73710;49.968;8.338;2024-02-23T16:18:22;51640.13;;;-141.83;56.82
83733;BME280;73710;49.968;8.338;2024-02-23T16:20:48;51658.16;;;-141.83;57.93
83733;BME280;73710;49.968;8.338;2024-02-23T16:23:13;51682.22;;;-141.83;57.19
83733;BME280;73710;49.968;8.338;2024-02-23T16:25:39;51666.19;;;-141.83;56.32
83733;BME280;73710;49.968;8.338;2024-02-23T16:28:04;51644.13;;;-141.83;55.25
83733;BME280;73710;49.968;8.338;2024-02-23T16:30:30;51614.06;;;-141.83;54.78
83733;BME280;73710;49.968;8.338;2024-02-23T16:32:57;51678.19;;;-141.83;54.93
83733;BME280;73710;49.968;8.338;2024-02-23T16:35:23;51684.22;;;-141.83;54.85
83733;BME280;73710;49.968;8.338;2024-02-23T16:37:49;51602.03;;;-141.83;55.20
83733;BME280;73710;49.968;8.338;2024-02-23T16:40:22;51654.16;;;-141.83;55.45
83733;BME280;73710;49.968;8.338;2024-02-23T16:42:52;51670.19;;;-141.83;56.08
83733;BME280;73710;49.968;8.338;2024-02-23T16:45:18;51674.19;;;-141.83;56.48
83733;BME280;73710;49.968;8.338;2024-02-23T16:47:43;51662.16;;;-141.83;56.97
83733;BME280;73710;49.968;8.338;2024-02-23T16:50:09;51672.19;;;-141.83;57.82
83733;BME280;73710;49.968;8.338;2024-02-23T16:52:34;51658.16;;;-141.83;57.89
83733;BME280;73710;49.968;8.338;2024-02-23T16:54:59;51636.13;;;-141.83;58.75
83733;BME280;73710;49.968;8.338;2024-02-23T16:57:25;51702.25;;;-141.83;58.88
83733;BME280;73710;49.968;8.338;2024-02-23T16:59:50;51670.19;;;-141.83;59.69
83733;BME280;73710;49.968;8.338;2024-02-23T17:02:15;51658.16;;;-141.83;60.15
83733;BME280;73710;49.968;8.338;2024-02-23T17:04:41;51654.16;;;-141.83;60.31
83733;BME280;73710;49.968;8.338;2024-02-23T17:07:06;51666.19;;;-141.83;60.27
83733;BME280;73710;49.968;8.338;2024-02-23T17:09:32;51652.16;;;-141.83;60.54
83733;BME280;73710;49.968;8.338;2024-02-23T17:11:57;51662.16;;;-141.83;59.62
83733;BME280;73710;49.968;8.338;2024-02-23T17:14:23;51682.22;;;-141.83;58.60
83733;BME280;73710;49.968;8.338;2024-02-23T17:16:50;51644.13;;;-141.83;58.67
83733;BME280;73710;49.968;8.338;2024-02-23T17:19:16;51666.19;;;-141.83;58.15
83733;BME280;73710;49.968;8.338;2024-02-23T17:21:41;51670.19;;;-141.83;57.38
83733;BME280;73710;49.968;8.338;2024-02-23T17:24:07;51674.19;;;-141.83;57.84
83733;BME280;73710;49.968;8.338;2024-02-23T17:26:32;51712.28;;;-141.83;57.82
83733;BME280;73710;49.968;8.338;2024-02-23T17:28:58;51658.16;;;-141.83;57.34
83733;BME280;73710;49.968;8.338;2024-02-23T17:31:23;51666.19;;;-141.83;58.81
83733;BME280;73710;49.968;8.338;2024-02-23T17:33:48;51616.06;;;-141.83;61.44
83733;BME280;73710;49.968;8.338;2024-02-23T17:36:14;51660.16;;;-141.83;63.33
83733;BME280;73710;49.968;8.338;2024-02-23T17:38:39;51660.16;;;-141.83;64.34